Decoded Metar for CYER ( in ) (IATA:) | Meteo·Mobile Aviation Weather
aviador You're here:

CYER Decoded Metar

in
Report Time2019-07-24 05:47:00
UTC Time2019-07-24 05:52:42
Flight Rules lifr LIFR
Wind340° at 06 kt
W.Decomp.*RWY 33: 5.9 kt HW 1.0 kt RCW
Visibility9999 m
Phenomena:N/A
Clouds:Overcast 003 Hf
Ceiling300 ft
Temp05°C
Dew Point05°C (100% RH)
AAT1.7°C
QNH1016 hPa
Raw Report
SPECI CYER 240547Z AUTO 34006KT 7SM OVC003 05/05 A3001 RMK SLP163=

Extra information for CYER:More info

Social comments